Pawnee, Oklahoma
Current Conditions -  °F | °C
As of 9:53 AM on Tuesday 21 Oct 2014 (Local Time) from KSWO Reporting Station
Clear Clear  
Wind Chill: 67°   Ceiling: Unl
Heat Index: 67°   Visibility: 9mi
Dew Point: 61°   Wind: 3mph
Humidity: 81%   Direction: 90°E
Pressure: 30.1"   Gusts: NA
Location:  36.34°N, 96.8°W
Report Text: KSWO 211453Z 09003KT 9SM CLR 19/16 A3010 RMK AO2 SLP184 T01940161 53010
Loading
Personal Weather Stations






























Interactive Weather Map
Tropical Storm Tracking
New forecast layout! Learn more

10-Day Weather Forecast

Advertisements
Track Severe Weather on mobile